createdAt,value
2019-05-14T00:00:03.751Z,2.20
2019-05-14T00:02:31.867Z,1.90
2019-05-14T00:05:01.720Z,1.90
2019-05-14T00:07:31.975Z,1.83
2019-05-14T00:10:03.280Z,2.10
2019-05-14T00:12:31.509Z,2.00
2019-05-14T00:15:02.812Z,2.03
2019-05-14T00:17:31.913Z,2.20
2019-05-14T00:20:09.356Z,1.73
2019-05-14T00:22:32.524Z,2.40
2019-05-14T00:25:01.509Z,2.40
2019-05-14T00:27:31.698Z,1.87
2019-05-14T00:30:02.227Z,2.50
2019-05-14T00:32:31.660Z,1.97
2019-05-14T00:34:59.181Z,2.43
2019-05-14T00:37:27.205Z,1.90
2019-05-14T00:39:55.289Z,1.73
2019-05-14T00:42:23.333Z,1.73
2019-05-14T00:44:57.671Z,1.50
2019-05-14T00:47:21.805Z,2.33
2019-05-14T00:49:51.694Z,1.97
2019-05-14T00:52:22.060Z,1.50
2019-05-14T00:54:51.978Z,1.57
2019-05-14T00:57:21.154Z,1.70
2019-05-14T00:59:49.145Z,1.60
2019-05-14T01:02:21.917Z,1.80
2019-05-14T01:04:51.624Z,2.23
2019-05-14T01:07:21.536Z,1.50
2019-05-14T01:09:52.719Z,2.00
2019-05-14T01:12:21.455Z,1.60
2019-05-14T01:14:52.914Z,1.53
2019-05-14T01:17:19.359Z,1.70
2019-05-14T01:19:47.459Z,1.60
2019-05-14T01:22:15.610Z,1.60
2019-05-14T01:24:43.706Z,1.67
2019-05-14T01:27:12.631Z,1.77
2019-05-14T01:29:42.538Z,1.70
2019-05-14T01:32:11.625Z,1.50
2019-05-14T01:34:41.938Z,1.93
2019-05-14T01:37:11.769Z,1.73
2019-05-14T01:39:41.726Z,1.80
2019-05-14T01:42:12.181Z,1.93
2019-05-14T01:44:41.265Z,2.55
2019-05-14T01:47:09.134Z,1.70
2019-05-14T01:49:37.184Z,1.73
2019-05-14T01:52:05.238Z,1.63
2019-05-14T01:54:33.272Z,1.87
2019-05-14T01:57:02.101Z,1.83
2019-05-14T01:59:32.144Z,1.57
2019-05-14T02:02:02.161Z,2.00
2019-05-14T02:04:31.626Z,1.50
2019-05-14T02:07:01.812Z,1.95
2019-05-14T02:09:31.074Z,1.70
2019-05-14T02:11:59.262Z,3.10
2019-05-14T02:14:27.306Z,1.80
2019-05-14T02:16:55.395Z,2.00
2019-05-14T02:19:24.726Z,2.13
2019-05-14T02:21:53.843Z,1.93
2019-05-14T02:24:22.007Z,1.90
2019-05-14T02:26:51.469Z,2.70
2019-05-14T02:29:21.456Z,2.23
2019-05-14T02:31:50.396Z,2.17
2019-05-14T02:34:19.766Z,1.90
2019-05-14T02:36:49.631Z,2.10
2019-05-14T02:39:19.635Z,1.73
2019-05-14T02:41:49.953Z,2.13
2019-05-14T02:44:20.581Z,2.13
2019-05-14T02:46:50.566Z,1.70
2019-05-14T02:49:19.429Z,2.27
2019-05-14T02:51:50.354Z,1.80
2019-05-14T02:54:20.113Z,3.03
2019-05-14T02:56:49.598Z,3.97
2019-05-14T02:59:19.465Z,2.50
2019-05-14T03:01:50.251Z,1.83
2019-05-14T03:04:19.741Z,2.30
2019-05-14T03:06:49.915Z,2.30
2019-05-14T03:09:20.313Z,1.90
2019-05-14T03:11:48.489Z,2.10
2019-05-14T03:14:19.470Z,1.80
2019-05-14T03:16:49.296Z,2.63
2019-05-14T03:19:19.244Z,2.43
2019-05-14T03:21:45.850Z,2.20
2019-05-14T03:24:13.913Z,2.00
2019-05-14T03:26:41.995Z,2.50
2019-05-14T03:29:10.271Z,2.30
2019-05-14T03:31:42.454Z,2.20
2019-05-14T03:34:13.151Z,2.50
2019-05-14T03:36:42.976Z,2.33
2019-05-14T03:39:10.512Z,2.37
2019-05-14T03:41:39.620Z,2.40
2019-05-14T03:44:09.886Z,2.57
2019-05-14T03:46:45.885Z,1.80
2019-05-14T03:49:09.327Z,2.47
2019-05-14T03:51:39.371Z,1.93
2019-05-14T03:54:11.987Z,3.30
2019-05-14T03:56:39.499Z,2.20
2019-05-14T03:59:09.594Z,2.10
2019-05-14T04:01:40.088Z,2.67
2019-05-14T04:04:10.954Z,2.03
2019-05-14T04:06:40.333Z,2.63
2019-05-14T04:09:09.633Z,2.40
2019-05-14T04:11:39.783Z,2.40
2019-05-14T04:14:10.135Z,2.53
2019-05-14T04:16:39.923Z,2.40
2019-05-14T04:19:09.975Z,2.47
2019-05-14T04:21:40.072Z,2.80
2019-05-14T04:24:09.749Z,2.43
2019-05-14T04:26:53.154Z,2.60
2019-05-14T04:29:09.892Z,2.50
2019-05-14T04:31:39.071Z,2.30
2019-05-14T04:34:06.694Z,2.30
2019-05-14T04:36:34.692Z,2.10
2019-05-14T04:39:02.766Z,2.13
2019-05-14T04:41:30.840Z,1.93
2019-05-14T04:43:59.551Z,2.00
2019-05-14T04:46:30.247Z,2.30
2019-05-14T04:48:59.129Z,2.27
2019-05-14T04:51:29.981Z,2.17
2019-05-14T04:53:59.793Z,2.27
2019-05-14T04:56:30.166Z,2.10
2019-05-14T04:58:59.689Z,2.37
2019-05-14T05:01:29.527Z,2.10
2019-05-14T05:03:59.182Z,2.27
2019-05-14T05:06:29.080Z,2.00
2019-05-14T05:08:59.979Z,2.23
2019-05-14T05:11:29.281Z,2.40
2019-05-14T05:13:59.196Z,1.90
2019-05-14T05:16:29.377Z,2.00
2019-05-14T05:18:59.188Z,1.93
2019-05-14T05:21:28.303Z,2.20
2019-05-14T05:23:58.471Z,1.90
2019-05-14T05:26:28.702Z,2.10
2019-05-14T05:29:05.594Z,2.53
2019-05-14T05:31:28.423Z,2.53
2019-05-14T05:33:58.215Z,2.50
2019-05-14T05:36:26.268Z,1.80
2019-05-14T05:38:54.659Z,2.60
2019-05-14T05:41:24.858Z,2.35
2019-05-14T05:43:53.927Z,2.00
2019-05-14T05:46:22.071Z,2.10
2019-05-14T05:48:50.205Z,2.10
2019-05-14T05:51:18.980Z,1.93
2019-05-14T05:53:48.700Z,2.03
2019-05-14T05:56:18.685Z,2.07
2019-05-14T05:58:48.838Z,1.73
2019-05-14T06:01:19.582Z,2.37
2019-05-14T06:03:49.403Z,2.17
2019-05-14T06:06:19.205Z,1.90
2019-05-14T06:08:49.104Z,2.15
2019-05-14T06:11:19.441Z,2.20
2019-05-14T06:13:48.537Z,1.90
2019-05-14T06:16:19.512Z,2.52
2019-05-14T06:18:48.783Z,2.27
2019-05-14T06:21:22.238Z,1.93
2019-05-14T06:23:50.324Z,2.35
2019-05-14T06:26:19.314Z,2.35
2019-05-14T06:28:48.778Z,2.23
2019-05-14T06:31:19.795Z,2.30
2019-05-14T06:33:48.618Z,2.90
2019-05-14T06:36:20.285Z,2.37
2019-05-14T06:38:49.485Z,2.20
2019-05-14T06:41:19.180Z,2.15
2019-05-14T06:43:49.813Z,2.33
2019-05-14T06:46:19.439Z,2.67
2019-05-14T06:48:48.753Z,2.40
2019-05-14T06:51:19.549Z,2.25
2019-05-14T06:53:49.591Z,2.30
2019-05-14T06:56:18.984Z,2.40
2019-05-14T06:58:49.147Z,2.20
2019-05-14T07:01:18.498Z,2.10
2019-05-14T07:03:49.951Z,2.40
2019-05-14T07:06:20.762Z,2.60
2019-05-14T07:08:52.103Z,2.25
2019-05-14T07:11:19.106Z,2.20
2019-05-14T07:13:49.205Z,2.50
2019-05-14T07:16:19.692Z,2.58
2019-05-14T07:18:52.704Z,2.10
2019-05-14T07:21:18.776Z,2.20
2019-05-14T07:23:48.946Z,2.02
2019-05-14T07:26:19.265Z,2.30
2019-05-14T07:28:48.841Z,2.33
2019-05-14T07:31:18.607Z,2.42
2019-05-14T07:33:49.416Z,2.27
2019-05-14T07:36:18.883Z,2.40
2019-05-14T07:38:49.005Z,2.07
2019-05-14T07:41:19.270Z,2.10
2019-05-14T07:43:48.343Z,2.00
2019-05-14T07:46:19.005Z,2.08
2019-05-14T07:49:03.489Z,1.93
2019-05-14T07:51:18.782Z,1.47
2019-05-14T07:53:48.515Z,1.67
2019-05-14T07:56:18.489Z,2.20
2019-05-14T07:58:46.196Z,2.02
2019-05-14T08:01:18.531Z,1.57
2019-05-14T08:03:45.737Z,2.03
2019-05-14T08:06:14.572Z,1.90
2019-05-14T08:08:42.768Z,2.00
2019-05-14T08:11:11.442Z,1.77
2019-05-14T08:13:42.449Z,1.57
2019-05-14T08:16:10.216Z,1.72
2019-05-14T08:18:39.597Z,1.62
2019-05-14T08:21:08.553Z,2.00
2019-05-14T08:23:38.934Z,1.87
2019-05-14T08:26:07.975Z,1.47
2019-05-14T08:28:38.231Z,1.90
2019-05-14T08:31:09.135Z,2.07
2019-05-14T08:33:39.716Z,1.60
2019-05-14T08:36:08.951Z,1.47
2019-05-14T08:38:49.946Z,1.40
2019-05-14T08:41:19.840Z,1.22
2019-05-14T08:43:48.888Z,1.35
2019-05-14T08:46:19.133Z,1.30
2019-05-14T08:48:49.519Z,1.55
2019-05-14T08:51:18.701Z,1.67
2019-05-14T08:53:49.691Z,1.47
2019-05-14T08:56:18.875Z,1.32
2019-05-14T08:58:49.121Z,1.50
2019-05-14T09:01:16.043Z,1.60
2019-05-14T09:03:44.083Z,1.85
2019-05-14T09:06:12.199Z,1.60
2019-05-14T09:08:40.747Z,1.80
2019-05-14T09:11:10.129Z,1.52
2019-05-14T09:13:38.474Z,1.47
2019-05-14T09:16:09.031Z,1.42
2019-05-14T09:18:38.616Z,1.50
2019-05-14T09:21:08.463Z,1.80
2019-05-14T09:23:35.808Z,1.90
2019-05-14T09:26:03.939Z,1.50
2019-05-14T09:28:31.973Z,1.40
2019-05-14T09:31:00.020Z,1.40
2019-05-14T09:33:29.635Z,1.55
2019-05-14T09:36:12.155Z,1.43
2019-05-14T09:38:29.316Z,1.98
2019-05-14T09:41:08.039Z,1.50
2019-05-14T09:43:28.649Z,1.70
2019-05-14T09:45:58.784Z,1.73
2019-05-14T09:48:28.432Z,1.82
2019-05-14T09:50:58.446Z,1.67
2019-05-14T09:53:26.062Z,1.50
2019-05-14T09:55:54.156Z,1.40
2019-05-14T09:58:22.239Z,1.50
2019-05-14T10:00:50.367Z,1.30
2019-05-14T10:03:19.176Z,1.30
2019-05-14T10:05:49.985Z,1.90
2019-05-14T10:08:19.224Z,1.52
2019-05-14T10:10:48.838Z,1.90
2019-05-14T10:13:17.129Z,1.67
2019-05-14T10:15:45.559Z,1.77
2019-05-14T10:18:13.655Z,1.50
2019-05-14T10:20:45.713Z,1.40
2019-05-14T10:23:11.540Z,1.37
2019-05-14T10:25:42.371Z,1.40
2019-05-14T10:28:09.807Z,1.53
2019-05-14T10:30:37.920Z,1.37
2019-05-14T10:33:10.650Z,1.10
2019-05-14T10:35:39.133Z,1.20
2019-05-14T10:38:08.800Z,1.40
2019-05-14T10:40:38.408Z,1.50
2019-05-14T10:43:09.159Z,1.40
2019-05-14T10:45:38.456Z,1.62
2019-05-14T10:48:06.235Z,1.50
2019-05-14T10:50:44.910Z,1.37
2019-05-14T10:53:04.394Z,1.30
2019-05-14T10:55:32.591Z,1.27
2019-05-14T10:58:01.143Z,1.50
2019-05-14T11:00:29.219Z,1.67
2019-05-14T11:02:57.374Z,1.57
2019-05-14T11:05:25.395Z,1.20
2019-05-14T11:07:53.493Z,1.42
2019-05-14T11:10:21.635Z,1.37
2019-05-14T11:12:50.682Z,1.20
2019-05-14T11:15:19.489Z,1.25
2019-05-14T11:17:48.711Z,1.17
2019-05-14T11:20:19.215Z,1.15
2019-05-14T11:22:49.072Z,1.40
2019-05-14T11:25:19.397Z,1.50
2019-05-14T11:27:49.393Z,1.27
2019-05-14T11:30:19.293Z,1.60
2019-05-14T11:32:49.296Z,1.40
2019-05-14T11:35:19.177Z,1.45
2019-05-14T11:37:48.053Z,1.20
2019-05-14T11:40:18.708Z,1.30
2019-05-14T11:42:46.097Z,1.30
2019-05-14T11:45:39.266Z,1.10
2019-05-14T11:48:12.390Z,1.87
2019-05-14T11:50:40.419Z,1.30
2019-05-14T11:53:08.604Z,1.65
2019-05-14T11:55:38.879Z,1.15
2019-05-14T11:58:08.785Z,1.35
2019-05-14T12:00:38.718Z,1.50
2019-05-14T12:03:09.207Z,1.25
2019-05-14T12:05:38.836Z,1.40
2019-05-14T12:08:08.695Z,1.20
2019-05-14T12:10:38.710Z,1.67
2019-05-14T12:13:08.520Z,1.10
2019-05-14T12:15:38.914Z,1.30
2019-05-14T12:18:06.451Z,1.47
2019-05-14T12:20:34.530Z,1.85
2019-05-14T12:23:02.599Z,1.50
2019-05-14T12:25:30.665Z,1.47
2019-05-14T12:27:59.087Z,1.20
2019-05-14T12:30:28.704Z,1.62
2019-05-14T12:32:58.990Z,1.40
2019-05-14T12:35:29.224Z,1.40
2019-05-14T12:37:58.668Z,1.37
2019-05-14T12:40:28.670Z,1.30
2019-05-14T12:42:58.750Z,1.30
2019-05-14T12:45:25.927Z,1.30
2019-05-14T12:47:54.012Z,1.40
2019-05-14T12:50:22.006Z,1.37
2019-05-14T12:52:50.119Z,1.52
2019-05-14T12:55:19.571Z,1.37
2019-05-14T12:57:48.546Z,1.70
2019-05-14T13:00:17.384Z,1.25
2019-05-14T13:02:50.076Z,1.53
2019-05-14T13:05:18.542Z,1.47
2019-05-14T13:07:50.895Z,1.10
2019-05-14T13:10:20.304Z,1.50
2019-05-14T13:12:48.596Z,1.20
2019-05-14T13:15:17.102Z,1.20
2019-05-14T13:17:49.227Z,1.22
2019-05-14T13:20:18.537Z,1.23
2019-05-14T13:22:50.024Z,1.00
2019-05-14T13:25:18.771Z,1.27
2019-05-14T13:27:47.003Z,1.23
2019-05-14T13:30:18.530Z,1.42
2019-05-14T13:32:48.737Z,1.20
2019-05-14T13:35:19.622Z,1.20
2019-05-14T13:37:49.134Z,1.20
2019-05-14T13:40:20.873Z,1.27
2019-05-14T13:42:49.063Z,1.32
2019-05-14T13:45:19.143Z,1.40
2019-05-14T13:47:48.807Z,1.37
2019-05-14T13:50:19.726Z,1.20
2019-05-14T13:53:02.031Z,1.45
2019-05-14T13:55:19.600Z,1.35
2019-05-14T13:57:48.705Z,1.20
2019-05-14T14:00:19.916Z,1.10
2019-05-14T14:02:46.842Z,1.30
2019-05-14T14:05:15.302Z,1.12
2019-05-14T14:07:45.119Z,1.20
2019-05-14T14:10:13.717Z,1.27
2019-05-14T14:12:43.539Z,1.10
2019-05-14T14:15:14.153Z,1.37
2019-05-14T14:17:46.053Z,1.17
2019-05-14T14:20:14.787Z,1.20
2019-05-14T14:22:43.171Z,1.10
2019-05-14T14:25:11.774Z,1.43
2019-05-14T14:27:42.735Z,1.40
2019-05-14T14:30:11.280Z,1.30
2019-05-14T14:32:40.662Z,1.27
2019-05-14T14:35:09.339Z,1.12
2019-05-14T14:37:39.655Z,1.60
2019-05-14T14:40:09.945Z,1.20
2019-05-14T14:42:40.070Z,1.00
2019-05-14T14:45:08.656Z,1.03
2019-05-14T14:47:44.727Z,1.25
2019-05-14T14:50:14.079Z,1.35
2019-05-14T14:52:42.102Z,1.22
2019-05-14T14:55:11.557Z,1.60
2019-05-14T14:57:45.002Z,1.13
2019-05-14T15:00:11.536Z,1.20
2019-05-14T15:02:41.134Z,1.20
2019-05-14T15:05:14.369Z,1.45
2019-05-14T15:07:41.005Z,1.20
2019-05-14T15:10:09.767Z,1.50
2019-05-14T15:12:40.055Z,1.40
2019-05-14T15:15:07.871Z,1.40
2019-05-14T15:17:39.293Z,1.30
2019-05-14T15:20:09.912Z,1.10
2019-05-14T15:22:37.522Z,1.20
2019-05-14T15:25:05.780Z,1.57
2019-05-14T15:27:33.863Z,1.37
2019-05-14T15:30:02.773Z,1.30
2019-05-14T15:32:31.279Z,1.30
2019-05-14T15:35:00.460Z,1.35
2019-05-14T15:37:31.700Z,1.37
2019-05-14T15:39:58.358Z,1.25
2019-05-14T15:42:28.364Z,1.23
2019-05-14T15:44:59.747Z,1.30
2019-05-14T15:47:29.671Z,1.33
2019-05-14T15:49:59.562Z,1.22
2019-05-14T15:52:29.044Z,1.22
2019-05-14T15:54:57.521Z,1.40
2019-05-14T15:57:28.624Z,1.10
2019-05-14T15:59:55.382Z,1.40
2019-05-14T16:02:23.438Z,1.30
2019-05-14T16:04:51.479Z,1.60
2019-05-14T16:07:20.890Z,1.50
2019-05-14T16:09:49.606Z,1.52
2019-05-14T16:12:19.690Z,1.30
2019-05-14T16:14:48.884Z,1.47
2019-05-14T16:17:23.684Z,1.20
2019-05-14T16:19:52.566Z,1.05
2019-05-14T16:22:21.077Z,1.10
2019-05-14T16:24:56.198Z,1.40
2019-05-14T16:27:26.195Z,1.40
2019-05-14T16:29:58.461Z,1.25
2019-05-14T16:32:28.515Z,1.10
2019-05-14T16:34:58.895Z,1.20
2019-05-14T16:37:28.226Z,1.20
2019-05-14T16:39:56.574Z,1.30
2019-05-14T16:42:24.794Z,1.22
2019-05-14T16:44:52.861Z,1.33
2019-05-14T16:47:22.045Z,1.20
2019-05-14T16:49:50.139Z,1.30
2019-05-14T16:52:19.452Z,1.60
2019-05-14T16:54:48.761Z,1.50
2019-05-14T16:57:18.581Z,1.50
2019-05-14T16:59:49.452Z,1.20
2019-05-14T17:02:19.146Z,1.20
2019-05-14T17:04:48.291Z,1.47
2019-05-14T17:07:22.587Z,1.70
2019-05-14T17:09:50.796Z,1.33
2019-05-14T17:12:22.073Z,1.55
2019-05-14T17:14:48.548Z,1.05
2019-05-14T17:17:16.732Z,1.30
2019-05-14T17:19:44.785Z,1.30
2019-05-14T17:22:27.595Z,1.50
2019-05-14T17:24:42.745Z,1.30
2019-05-14T17:27:10.867Z,1.50
2019-05-14T17:29:39.145Z,1.30
2019-05-14T17:32:07.258Z,1.25
2019-05-14T17:34:35.294Z,1.35
2019-05-14T17:37:03.428Z,1.87
2019-05-14T17:39:31.637Z,1.30
2019-05-14T17:42:01.423Z,1.50
2019-05-14T17:44:32.103Z,1.60
2019-05-14T17:47:00.496Z,1.10
2019-05-14T17:49:28.874Z,1.40
2019-05-14T17:51:58.143Z,1.20
2019-05-14T17:54:28.405Z,1.55
2019-05-14T17:57:02.487Z,2.27
2019-05-14T17:59:39.591Z,2.98
2019-05-14T18:02:15.337Z,3.70
2019-05-14T18:04:43.359Z,2.60
2019-05-14T18:07:11.533Z,2.53
2019-05-14T18:09:39.936Z,2.80
2019-05-14T18:12:08.256Z,1.95
2019-05-14T18:14:38.456Z,1.37
2019-05-14T18:17:08.949Z,1.10
2019-05-14T18:19:37.963Z,1.60
2019-05-14T18:22:06.040Z,1.60
2019-05-14T18:24:34.769Z,1.53
2019-05-14T18:27:02.814Z,1.30
2019-05-14T18:29:31.210Z,1.67
2019-05-14T18:32:01.464Z,1.30
2019-05-14T18:34:29.317Z,1.73
2019-05-14T18:37:00.666Z,1.57
2019-05-14T18:39:28.331Z,1.57
2019-05-14T18:42:00.317Z,2.13
2019-05-14T18:44:28.461Z,1.70
2019-05-14T18:46:59.208Z,1.97
2019-05-14T18:49:28.793Z,1.77
2019-05-14T18:51:59.127Z,1.77
2019-05-14T18:54:29.190Z,1.60
2019-05-14T18:56:56.702Z,1.40
2019-05-14T18:59:24.934Z,1.67
2019-05-14T19:01:53.916Z,1.33
2019-05-14T19:04:22.882Z,1.40
2019-05-14T19:06:51.010Z,1.20
2019-05-14T19:09:20.283Z,1.60
2019-05-14T19:11:48.411Z,1.40
2019-05-14T19:14:21.160Z,1.70
2019-05-14T19:16:49.340Z,1.70
2019-05-14T19:19:17.433Z,1.80
2019-05-14T19:21:45.747Z,1.87
2019-05-14T19:24:13.789Z,1.40
2019-05-14T19:26:41.949Z,1.50
2019-05-14T19:29:10.008Z,1.80
2019-05-14T19:31:38.663Z,1.67
2019-05-14T19:34:08.506Z,1.80
2019-05-14T19:36:36.738Z,1.50
2019-05-14T19:39:07.756Z,1.60
2019-05-14T19:41:35.494Z,1.67
2019-05-14T19:44:03.632Z,1.70
2019-05-14T19:46:31.991Z,1.80
2019-05-14T19:49:00.191Z,1.97
2019-05-14T19:51:28.331Z,1.70
2019-05-14T19:53:58.436Z,1.83
2019-05-14T19:56:29.144Z,1.30
2019-05-14T19:59:03.940Z,1.60
2019-05-14T20:01:32.134Z,1.73
2019-05-14T20:04:00.251Z,1.70
2019-05-14T20:06:29.479Z,1.83
2019-05-14T20:08:58.751Z,1.70
2019-05-14T20:11:28.982Z,1.87
2019-05-14T20:13:59.014Z,1.83
2019-05-14T20:16:28.538Z,1.70
2019-05-14T20:18:58.036Z,1.67
2019-05-14T20:21:28.274Z,1.60
2019-05-14T20:23:56.126Z,1.93
2019-05-14T20:26:24.501Z,1.73
2019-05-14T20:28:52.776Z,1.80
2019-05-14T20:31:21.072Z,2.10
2019-05-14T20:33:50.365Z,1.70
2019-05-14T20:36:21.959Z,2.30
2019-05-14T20:38:50.185Z,1.53
2019-05-14T20:41:18.276Z,1.60
2019-05-14T20:43:47.960Z,1.60
2019-05-14T20:46:18.472Z,1.47
2019-05-14T20:48:46.405Z,1.47
2019-05-14T20:51:14.566Z,2.30
2019-05-14T20:53:42.700Z,1.87
2019-05-14T20:56:10.807Z,1.40
2019-05-14T20:58:39.087Z,1.97
2019-05-14T21:01:11.152Z,2.00
2019-05-14T21:03:37.123Z,1.90
2019-05-14T21:06:06.078Z,1.73
2019-05-14T21:08:34.853Z,1.63
2019-05-14T21:11:03.053Z,1.70
2019-05-14T21:13:31.174Z,1.42
2019-05-14T21:15:59.204Z,1.30
2019-05-14T21:18:34.800Z,1.50
2019-05-14T21:20:57.178Z,1.60
2019-05-14T21:23:26.224Z,1.47
2019-05-14T21:25:54.343Z,1.53
2019-05-14T21:28:29.890Z,1.60
2019-05-14T21:30:56.412Z,1.40
2019-05-14T21:33:25.124Z,1.43
2019-05-14T21:35:53.388Z,1.70
2019-05-14T21:38:21.873Z,1.67
2019-05-14T21:40:50.150Z,1.50
2019-05-14T21:43:19.043Z,1.20
2019-05-14T21:45:48.939Z,1.70
2019-05-14T21:48:19.633Z,1.70
2019-05-14T21:50:47.151Z,1.30
2019-05-14T21:53:15.184Z,1.60
2019-05-14T21:55:43.959Z,1.50
2019-05-14T21:58:12.046Z,1.17
2019-05-14T22:00:42.372Z,2.23
2019-05-14T22:03:10.710Z,1.60
2019-05-14T22:05:39.458Z,1.37
2019-05-14T22:08:08.798Z,1.73
2019-05-14T22:10:39.498Z,2.70
2019-05-14T22:13:07.006Z,1.80
2019-05-14T22:15:35.066Z,1.77
2019-05-14T22:18:03.315Z,1.73
2019-05-14T22:20:31.448Z,1.70
2019-05-14T22:22:59.606Z,1.87
2019-05-14T22:25:28.454Z,1.40
2019-05-14T22:28:08.974Z,1.70
2019-05-14T22:30:28.928Z,1.30
2019-05-14T22:33:00.353Z,1.50
2019-05-14T22:35:30.811Z,1.50
2019-05-14T22:37:56.098Z,1.57
2019-05-14T22:40:24.168Z,1.50
2019-05-14T22:42:52.326Z,1.37
2019-05-14T22:45:20.337Z,1.60
2019-05-14T22:47:49.526Z,1.30
2019-05-14T22:50:18.385Z,1.40
2019-05-14T22:52:48.654Z,1.60
2019-05-14T22:55:17.899Z,1.40
2019-05-14T22:57:47.964Z,1.40
2019-05-14T23:00:20.744Z,1.20
2019-05-14T23:02:48.606Z,1.40
2019-05-14T23:05:19.177Z,1.50
2019-05-14T23:07:48.528Z,2.93
2019-05-14T23:10:18.363Z,1.40
2019-05-14T23:12:48.711Z,1.63
2019-05-14T23:15:18.165Z,1.37
2019-05-14T23:17:48.016Z,1.40
2019-05-14T23:20:15.908Z,1.63
2019-05-14T23:22:45.316Z,1.60
2019-05-14T23:25:13.403Z,1.50
2019-05-14T23:27:41.460Z,1.30
2019-05-14T23:30:09.497Z,1.70
2019-05-14T23:32:38.398Z,1.67
2019-05-14T23:35:06.893Z,1.80
2019-05-14T23:37:35.258Z,1.50
2019-05-14T23:40:03.301Z,1.40
2019-05-14T23:42:31.389Z,1.47
2019-05-14T23:44:59.504Z,1.50
2019-05-14T23:47:28.912Z,1.80
2019-05-14T23:49:58.436Z,1.70
2019-05-14T23:52:29.196Z,1.57
2019-05-14T23:54:56.324Z,1.67
2019-05-14T23:57:24.448Z,1.77
2019-05-14T23:59:52.517Z,1.70
